sensor_id;sensor_type;location;lat;lon;timestamp;P1;durP1;ratioP1;P2;durP2;ratioP2
16845;SDS011;8539;53.188;8.696;2024-03-25T00:00:16;8.88;;;2.88;;
16845;SDS011;8539;53.188;8.696;2024-03-25T00:02:46;6.43;;;2.45;;
16845;SDS011;8539;53.188;8.696;2024-03-25T00:05:13;7.07;;;1.95;;
16845;SDS011;8539;53.188;8.696;2024-03-25T00:07:41;7.93;;;2.10;;
16845;SDS011;8539;53.188;8.696;2024-03-25T00:10:07;7.60;;;1.67;;
16845;SDS011;8539;53.188;8.696;2024-03-25T00:12:34;3.58;;;1.98;;
16845;SDS011;8539;53.188;8.696;2024-03-25T00:15:01;8.85;;;2.15;;
16845;SDS011;8539;53.188;8.696;2024-03-25T00:17:28;7.10;;;2.20;;
16845;SDS011;8539;53.188;8.696;2024-03-25T00:19:55;8.90;;;2.80;;
16845;SDS011;8539;53.188;8.696;2024-03-25T00:22:21;5.35;;;2.80;;
16845;SDS011;8539;53.188;8.696;2024-03-25T00:24:51;8.88;;;2.00;;
16845;SDS011;8539;53.188;8.696;2024-03-25T00:27:17;7.95;;;2.20;;
16845;SDS011;8539;53.188;8.696;2024-03-25T00:29:44;6.35;;;2.92;;
16845;SDS011;8539;53.188;8.696;2024-03-25T00:32:11;7.10;;;1.63;;
16845;SDS011;8539;53.188;8.696;2024-03-25T00:34:37;8.00;;;2.10;;
16845;SDS011;8539;53.188;8.696;2024-03-25T00:37:05;8.05;;;1.90;;
16845;SDS011;8539;53.188;8.696;2024-03-25T00:39:31;2.08;;;1.40;;
16845;SDS011;8539;53.188;8.696;2024-03-25T00:41:58;6.07;;;2.10;;
16845;SDS011;8539;53.188;8.696;2024-03-25T00:44:25;3.33;;;1.98;;
16845;SDS011;8539;53.188;8.696;2024-03-25T00:46:52;9.80;;;2.40;;
16845;SDS011;8539;53.188;8.696;2024-03-25T00:49:19;3.72;;;1.65;;
16845;SDS011;8539;53.188;8.696;2024-03-25T00:51:47;10.18;;;1.98;;
16845;SDS011;8539;53.188;8.696;2024-03-25T00:54:13;8.27;;;1.88;;
16845;SDS011;8539;53.188;8.696;2024-03-25T00:56:39;9.60;;;1.75;;
16845;SDS011;8539;53.188;8.696;2024-03-25T00:59:06;5.93;;;1.60;;
16845;SDS011;8539;53.188;8.696;2024-03-25T01:01:32;7.28;;;2.25;;
16845;SDS011;8539;53.188;8.696;2024-03-25T01:04:01;5.75;;;2.70;;
16845;SDS011;8539;53.188;8.696;2024-03-25T01:06:28;9.82;;;1.83;;
16845;SDS011;8539;53.188;8.696;2024-03-25T01:08:55;11.70;;;2.65;;
16845;SDS011;8539;53.188;8.696;2024-03-25T01:11:21;2.25;;;1.58;;
16845;SDS011;8539;53.188;8.696;2024-03-25T01:13:49;7.07;;;2.38;;
16845;SDS011;8539;53.188;8.696;2024-03-25T01:16:18;7.07;;;2.40;;
16845;SDS011;8539;53.188;8.696;2024-03-25T01:18:44;3.10;;;2.28;;
16845;SDS011;8539;53.188;8.696;2024-03-25T01:21:11;3.67;;;1.83;;
16845;SDS011;8539;53.188;8.696;2024-03-25T01:23:37;4.20;;;1.92;;
16845;SDS011;8539;53.188;8.696;2024-03-25T01:26:04;11.27;;;2.15;;
16845;SDS011;8539;53.188;8.696;2024-03-25T01:28:31;7.20;;;2.25;;
16845;SDS011;8539;53.188;8.696;2024-03-25T01:30:58;5.88;;;1.45;;
16845;SDS011;8539;53.188;8.696;2024-03-25T01:33:25;2.67;;;1.52;;
16845;SDS011;8539;53.188;8.696;2024-03-25T01:35:51;4.65;;;2.00;;
16845;SDS011;8539;53.188;8.696;2024-03-25T01:38:20;6.13;;;1.92;;
16845;SDS011;8539;53.188;8.696;2024-03-25T01:40:47;6.47;;;2.03;;
16845;SDS011;8539;53.188;8.696;2024-03-25T01:43:14;2.75;;;1.65;;
16845;SDS011;8539;53.188;8.696;2024-03-25T01:45:41;5.53;;;2.03;;
16845;SDS011;8539;53.188;8.696;2024-03-25T01:48:08;4.03;;;2.17;;
16845;SDS011;8539;53.188;8.696;2024-03-25T01:50:39;5.22;;;2.10;;
16845;SDS011;8539;53.188;8.696;2024-03-25T01:53:07;6.90;;;2.60;;
16845;SDS011;8539;53.188;8.696;2024-03-25T01:55:34;4.05;;;2.55;;
16845;SDS011;8539;53.188;8.696;2024-03-25T01:58:02;6.68;;;2.47;;
16845;SDS011;8539;53.188;8.696;2024-03-25T02:00:31;7.40;;;3.28;;
16845;SDS011;8539;53.188;8.696;2024-03-25T02:02:59;5.13;;;3.03;;
16845;SDS011;8539;53.188;8.696;2024-03-25T02:05:26;5.75;;;2.72;;
16845;SDS011;8539;53.188;8.696;2024-03-25T02:07:52;11.68;;;3.15;;
16845;SDS011;8539;53.188;8.696;2024-03-25T02:10:19;4.72;;;3.10;;
16845;SDS011;8539;53.188;8.696;2024-03-25T02:12:47;8.55;;;3.03;;
16845;SDS011;8539;53.188;8.696;2024-03-25T02:15:14;13.98;;;3.17;;
16845;SDS011;8539;53.188;8.696;2024-03-25T02:17:40;9.40;;;3.47;;
16845;SDS011;8539;53.188;8.696;2024-03-25T02:20:07;12.13;;;4.40;;
16845;SDS011;8539;53.188;8.696;2024-03-25T02:22:37;5.97;;;2.70;;
16845;SDS011;8539;53.188;8.696;2024-03-25T02:25:07;7.25;;;3.70;;
16845;SDS011;8539;53.188;8.696;2024-03-25T02:27:38;6.10;;;2.90;;
16845;SDS011;8539;53.188;8.696;2024-03-25T02:30:08;6.13;;;3.33;;
16845;SDS011;8539;53.188;8.696;2024-03-25T02:32:39;8.23;;;2.53;;
16845;SDS011;8539;53.188;8.696;2024-03-25T02:35:07;10.10;;;3.42;;
16845;SDS011;8539;53.188;8.696;2024-03-25T02:37:39;7.88;;;2.08;;
16845;SDS011;8539;53.188;8.696;2024-03-25T02:40:06;9.60;;;2.67;;
16845;SDS011;8539;53.188;8.696;2024-03-25T02:42:35;5.68;;;3.58;;
16845;SDS011;8539;53.188;8.696;2024-03-25T02:45:02;6.03;;;2.20;;
16845;SDS011;8539;53.188;8.696;2024-03-25T02:47:29;6.70;;;2.38;;
16845;SDS011;8539;53.188;8.696;2024-03-25T02:49:55;6.20;;;3.35;;
16845;SDS011;8539;53.188;8.696;2024-03-25T02:52:21;10.07;;;3.67;;
16845;SDS011;8539;53.188;8.696;2024-03-25T02:54:48;9.43;;;3.42;;
16845;SDS011;8539;53.188;8.696;2024-03-25T02:57:14;8.05;;;2.78;;
16845;SDS011;8539;53.188;8.696;2024-03-25T02:59:40;8.85;;;3.67;;
16845;SDS011;8539;53.188;8.696;2024-03-25T03:02:06;6.22;;;3.13;;
16845;SDS011;8539;53.188;8.696;2024-03-25T03:04:33;9.05;;;2.92;;
16845;SDS011;8539;53.188;8.696;2024-03-25T03:06:59;6.57;;;3.35;;
16845;SDS011;8539;53.188;8.696;2024-03-25T03:09:25;11.57;;;3.95;;
16845;SDS011;8539;53.188;8.696;2024-03-25T03:11:51;8.82;;;3.33;;
16845;SDS011;8539;53.188;8.696;2024-03-25T03:14:17;6.80;;;3.83;;
16845;SDS011;8539;53.188;8.696;2024-03-25T03:16:43;7.57;;;3.05;;
16845;SDS011;8539;53.188;8.696;2024-03-25T03:19:09;8.40;;;3.70;;
16845;SDS011;8539;53.188;8.696;2024-03-25T03:21:35;8.82;;;2.88;;
16845;SDS011;8539;53.188;8.696;2024-03-25T03:24:02;5.68;;;2.63;;
16845;SDS011;8539;53.188;8.696;2024-03-25T03:26:31;6.55;;;2.97;;
16845;SDS011;8539;53.188;8.696;2024-03-25T03:28:57;13.30;;;3.13;;
16845;SDS011;8539;53.188;8.696;2024-03-25T03:31:23;14.02;;;2.53;;
16845;SDS011;8539;53.188;8.696;2024-03-25T03:33:50;7.40;;;2.38;;
16845;SDS011;8539;53.188;8.696;2024-03-25T03:36:21;10.73;;;2.85;;
16845;SDS011;8539;53.188;8.696;2024-03-25T03:38:49;7.25;;;2.55;;
16845;SDS011;8539;53.188;8.696;2024-03-25T03:41:17;9.38;;;3.25;;
16845;SDS011;8539;53.188;8.696;2024-03-25T03:43:43;9.60;;;3.03;;
16845;SDS011;8539;53.188;8.696;2024-03-25T03:46:09;6.28;;;2.50;;
16845;SDS011;8539;53.188;8.696;2024-03-25T03:48:36;7.70;;;3.22;;
16845;SDS011;8539;53.188;8.696;2024-03-25T03:51:04;8.23;;;3.10;;
16845;SDS011;8539;53.188;8.696;2024-03-25T03:53:31;8.18;;;3.28;;
16845;SDS011;8539;53.188;8.696;2024-03-25T03:55:58;9.73;;;2.35;;
16845;SDS011;8539;53.188;8.696;2024-03-25T03:58:27;8.35;;;3.03;;
16845;SDS011;8539;53.188;8.696;2024-03-25T04:00:54;5.53;;;3.05;;
16845;SDS011;8539;53.188;8.696;2024-03-25T04:03:21;8.38;;;3.28;;
16845;SDS011;8539;53.188;8.696;2024-03-25T04:05:47;7.72;;;2.58;;
16845;SDS011;8539;53.188;8.696;2024-03-25T04:08:13;11.15;;;3.45;;
16845;SDS011;8539;53.188;8.696;2024-03-25T04:10:40;11.65;;;2.65;;
16845;SDS011;8539;53.188;8.696;2024-03-25T04:13:07;8.82;;;2.88;;
16845;SDS011;8539;53.188;8.696;2024-03-25T04:15:34;10.45;;;2.50;;
16845;SDS011;8539;53.188;8.696;2024-03-25T04:18:00;14.23;;;3.20;;
16845;SDS011;8539;53.188;8.696;2024-03-25T04:20:27;7.53;;;2.58;;
16845;SDS011;8539;53.188;8.696;2024-03-25T04:22:56;10.68;;;2.85;;
16845;SDS011;8539;53.188;8.696;2024-03-25T04:25:25;15.60;;;3.80;;
16845;SDS011;8539;53.188;8.696;2024-03-25T04:27:51;8.43;;;2.70;;
16845;SDS011;8539;53.188;8.696;2024-03-25T04:30:18;11.75;;;2.72;;
16845;SDS011;8539;53.188;8.696;2024-03-25T04:32:44;17.10;;;3.42;;
16845;SDS011;8539;53.188;8.696;2024-03-25T04:35:10;13.95;;;3.38;;
16845;SDS011;8539;53.188;8.696;2024-03-25T04:37:36;9.73;;;2.92;;
16845;SDS011;8539;53.188;8.696;2024-03-25T04:40:03;16.00;;;2.88;;
16845;SDS011;8539;53.188;8.696;2024-03-25T04:42:29;9.77;;;2.72;;
16845;SDS011;8539;53.188;8.696;2024-03-25T04:44:55;6.45;;;2.42;;
16845;SDS011;8539;53.188;8.696;2024-03-25T04:47:22;10.80;;;2.60;;
16845;SDS011;8539;53.188;8.696;2024-03-25T04:49:49;12.35;;;2.55;;
16845;SDS011;8539;53.188;8.696;2024-03-25T04:52:15;6.40;;;2.35;;
16845;SDS011;8539;53.188;8.696;2024-03-25T04:57:14;11.43;;;3.75;;
16845;SDS011;8539;53.188;8.696;2024-03-25T04:59:40;15.13;;;2.63;;
16845;SDS011;8539;53.188;8.696;2024-03-25T05:02:07;6.10;;;2.67;;
16845;SDS011;8539;53.188;8.696;2024-03-25T05:04:33;11.95;;;2.47;;
16845;SDS011;8539;53.188;8.696;2024-03-25T05:07:00;7.15;;;2.40;;
16845;SDS011;8539;53.188;8.696;2024-03-25T05:09:26;10.65;;;2.78;;
16845;SDS011;8539;53.188;8.696;2024-03-25T05:11:53;11.60;;;3.50;;
16845;SDS011;8539;53.188;8.696;2024-03-25T05:14:19;12.07;;;3.53;;
16845;SDS011;8539;53.188;8.696;2024-03-25T05:16:45;10.80;;;3.65;;
16845;SDS011;8539;53.188;8.696;2024-03-25T05:19:12;13.90;;;3.33;;
16845;SDS011;8539;53.188;8.696;2024-03-25T05:21:38;11.45;;;3.05;;
16845;SDS011;8539;53.188;8.696;2024-03-25T05:24:04;9.55;;;3.70;;
16845;SDS011;8539;53.188;8.696;2024-03-25T05:26:30;12.45;;;3.88;;
16845;SDS011;8539;53.188;8.696;2024-03-25T05:28:56;15.80;;;3.55;;
16845;SDS011;8539;53.188;8.696;2024-03-25T05:31:23;9.27;;;3.20;;
16845;SDS011;8539;53.188;8.696;2024-03-25T05:33:50;21.75;;;3.28;;
16845;SDS011;8539;53.188;8.696;2024-03-25T05:36:16;10.25;;;3.25;;
16845;SDS011;8539;53.188;8.696;2024-03-25T05:38:42;15.63;;;3.35;;
16845;SDS011;8539;53.188;8.696;2024-03-25T05:41:09;15.70;;;3.85;;
16845;SDS011;8539;53.188;8.696;2024-03-25T05:43:36;9.93;;;2.60;;
16845;SDS011;8539;53.188;8.696;2024-03-25T05:46:02;11.52;;;4.95;;
16845;SDS011;8539;53.188;8.696;2024-03-25T05:48:29;16.25;;;3.13;;
16845;SDS011;8539;53.188;8.696;2024-03-25T05:51:05;10.45;;;3.40;;
16845;SDS011;8539;53.188;8.696;2024-03-25T05:53:33;17.85;;;3.50;;
16845;SDS011;8539;53.188;8.696;2024-03-25T05:56:00;11.20;;;3.45;;
16845;SDS011;8539;53.188;8.696;2024-03-25T05:58:27;18.80;;;4.55;;
16845;SDS011;8539;53.188;8.696;2024-03-25T06:00:53;12.88;;;3.50;;
16845;SDS011;8539;53.188;8.696;2024-03-25T06:03:20;6.47;;;2.78;;
16845;SDS011;8539;53.188;8.696;2024-03-25T06:05:46;16.08;;;2.92;;
16845;SDS011;8539;53.188;8.696;2024-03-25T06:08:14;14.50;;;3.60;;
16845;SDS011;8539;53.188;8.696;2024-03-25T06:11:06;20.58;;;4.72;;
16845;SDS011;8539;53.188;8.696;2024-03-25T06:13:32;17.98;;;2.97;;
16845;SDS011;8539;53.188;8.696;2024-03-25T06:15:58;16.27;;;4.00;;
16845;SDS011;8539;53.188;8.696;2024-03-25T06:18:24;22.55;;;3.50;;
16845;SDS011;8539;53.188;8.696;2024-03-25T06:20:51;15.32;;;2.97;;
16845;SDS011;8539;53.188;8.696;2024-03-25T06:23:24;19.58;;;3.90;;
16845;SDS011;8539;53.188;8.696;2024-03-25T06:25:51;9.45;;;3.38;;
16845;SDS011;8539;53.188;8.696;2024-03-25T06:28:19;20.27;;;2.78;;
16845;SDS011;8539;53.188;8.696;2024-03-25T06:30:46;9.30;;;3.13;;
16845;SDS011;8539;53.188;8.696;2024-03-25T06:33:33;11.77;;;2.70;;
16845;SDS011;8539;53.188;8.696;2024-03-25T06:36:18;15.95;;;4.28;;
16845;SDS011;8539;53.188;8.696;2024-03-25T06:38:44;13.50;;;3.20;;
16845;SDS011;8539;53.188;8.696;2024-03-25T06:41:11;13.32;;;3.33;;
16845;SDS011;8539;53.188;8.696;2024-03-25T06:43:38;14.13;;;3.17;;
16845;SDS011;8539;53.188;8.696;2024-03-25T06:46:07;13.05;;;3.22;;
16845;SDS011;8539;53.188;8.696;2024-03-25T06:48:34;14.75;;;2.80;;
16845;SDS011;8539;53.188;8.696;2024-03-25T06:51:00;12.27;;;3.28;;
16845;SDS011;8539;53.188;8.696;2024-03-25T06:53:28;14.82;;;2.83;;
16845;SDS011;8539;53.188;8.696;2024-03-25T06:55:55;14.82;;;2.75;;
16845;SDS011;8539;53.188;8.696;2024-03-25T06:58:26;15.73;;;3.15;;
16845;SDS011;8539;53.188;8.696;2024-03-25T07:00:53;15.65;;;4.70;;
16845;SDS011;8539;53.188;8.696;2024-03-25T07:03:20;12.35;;;3.60;;
16845;SDS011;8539;53.188;8.696;2024-03-25T07:05:47;17.80;;;3.00;;
16845;SDS011;8539;53.188;8.696;2024-03-25T07:08:15;11.15;;;3.75;;
16845;SDS011;8539;53.188;8.696;2024-03-25T07:10:41;14.77;;;3.47;;
16845;SDS011;8539;53.188;8.696;2024-03-25T07:13:07;20.08;;;3.90;;
16845;SDS011;8539;53.188;8.696;2024-03-25T07:15:34;15.00;;;4.30;;
16845;SDS011;8539;53.188;8.696;2024-03-25T07:18:00;15.05;;;4.10;;
16845;SDS011;8539;53.188;8.696;2024-03-25T07:20:26;10.68;;;3.85;;
16845;SDS011;8539;53.188;8.696;2024-03-25T07:22:53;20.45;;;3.83;;
16845;SDS011;8539;53.188;8.696;2024-03-25T07:25:22;13.38;;;3.95;;
16845;SDS011;8539;53.188;8.696;2024-03-25T07:27:49;16.02;;;3.83;;
16845;SDS011;8539;53.188;8.696;2024-03-25T07:30:16;19.38;;;3.67;;
16845;SDS011;8539;53.188;8.696;2024-03-25T07:32:44;22.02;;;4.00;;
16845;SDS011;8539;53.188;8.696;2024-03-25T07:35:11;14.68;;;4.43;;
16845;SDS011;8539;53.188;8.696;2024-03-25T07:37:37;10.38;;;3.42;;
16845;SDS011;8539;53.188;8.696;2024-03-25T07:40:04;6.88;;;2.60;;
16845;SDS011;8539;53.188;8.696;2024-03-25T07:42:31;12.07;;;3.03;;
16845;SDS011;8539;53.188;8.696;2024-03-25T07:44:57;7.90;;;2.90;;
16845;SDS011;8539;53.188;8.696;2024-03-25T07:47:24;15.98;;;3.90;;
16845;SDS011;8539;53.188;8.696;2024-03-25T07:49:50;10.43;;;3.10;;
16845;SDS011;8539;53.188;8.696;2024-03-25T07:52:16;11.38;;;3.42;;
16845;SDS011;8539;53.188;8.696;2024-03-25T07:54:42;15.75;;;3.35;;
16845;SDS011;8539;53.188;8.696;2024-03-25T07:57:08;9.48;;;2.97;;
16845;SDS011;8539;53.188;8.696;2024-03-25T07:59:35;12.27;;;2.85;;
16845;SDS011;8539;53.188;8.696;2024-03-25T08:02:01;12.13;;;2.67;;
16845;SDS011;8539;53.188;8.696;2024-03-25T08:04:27;10.25;;;3.92;;
16845;SDS011;8539;53.188;8.696;2024-03-25T08:06:53;18.02;;;3.92;;
16845;SDS011;8539;53.188;8.696;2024-03-25T08:09:19;16.73;;;2.75;;
16845;SDS011;8539;53.188;8.696;2024-03-25T08:11:45;11.55;;;3.50;;
16845;SDS011;8539;53.188;8.696;2024-03-25T08:14:12;13.35;;;2.67;;
16845;SDS011;8539;53.188;8.696;2024-03-25T08:16:38;9.10;;;3.58;;
16845;SDS011;8539;53.188;8.696;2024-03-25T08:19:04;8.55;;;2.97;;
16845;SDS011;8539;53.188;8.696;2024-03-25T08:21:31;20.20;;;2.40;;
16845;SDS011;8539;53.188;8.696;2024-03-25T08:23:57;16.70;;;4.35;;
16845;SDS011;8539;53.188;8.696;2024-03-25T08:26:23;14.00;;;2.95;;
16845;SDS011;8539;53.188;8.696;2024-03-25T08:28:49;11.07;;;2.80;;
16845;SDS011;8539;53.188;8.696;2024-03-25T08:31:15;11.88;;;2.88;;
16845;SDS011;8539;53.188;8.696;2024-03-25T08:33:42;10.88;;;2.45;;
16845;SDS011;8539;53.188;8.696;2024-03-25T08:36:08;10.90;;;2.67;;
16845;SDS011;8539;53.188;8.696;2024-03-25T08:38:34;16.33;;;2.95;;
16845;SDS011;8539;53.188;8.696;2024-03-25T08:41:00;11.90;;;2.20;;
16845;SDS011;8539;53.188;8.696;2024-03-25T08:43:26;8.70;;;2.70;;
16845;SDS011;8539;53.188;8.696;2024-03-25T08:45:53;9.70;;;3.13;;
16845;SDS011;8539;53.188;8.696;2024-03-25T08:48:19;11.93;;;2.67;;
16845;SDS011;8539;53.188;8.696;2024-03-25T08:50:45;8.65;;;2.88;;
16845;SDS011;8539;53.188;8.696;2024-03-25T08:53:11;11.07;;;2.08;;
16845;SDS011;8539;53.188;8.696;2024-03-25T08:55:37;7.97;;;2.05;;
16845;SDS011;8539;53.188;8.696;2024-03-25T08:58:03;10.00;;;1.95;;
16845;SDS011;8539;53.188;8.696;2024-03-25T09:00:29;14.48;;;2.80;;
16845;SDS011;8539;53.188;8.696;2024-03-25T09:02:56;11.15;;;2.58;;
16845;SDS011;8539;53.188;8.696;2024-03-25T09:05:22;6.00;;;2.05;;
16845;SDS011;8539;53.188;8.696;2024-03-25T09:07:51;9.93;;;3.35;;
16845;SDS011;8539;53.188;8.696;2024-03-25T09:10:18;8.40;;;2.00;;
16845;SDS011;8539;53.188;8.696;2024-03-25T09:13:02;9.60;;;3.13;;
16845;SDS011;8539;53.188;8.696;2024-03-25T09:15:29;6.28;;;1.77;;
16845;SDS011;8539;53.188;8.696;2024-03-25T09:17:55;15.25;;;3.05;;
16845;SDS011;8539;53.188;8.696;2024-03-25T09:20:21;10.48;;;2.38;;
16845;SDS011;8539;53.188;8.696;2024-03-25T09:22:48;11.40;;;2.08;;
16845;SDS011;8539;53.188;8.696;2024-03-25T09:25:15;11.02;;;2.20;;
16845;SDS011;8539;53.188;8.696;2024-03-25T09:27:46;11.73;;;2.15;;
16845;SDS011;8539;53.188;8.696;2024-03-25T09:30:12;7.88;;;1.90;;
16845;SDS011;8539;53.188;8.696;2024-03-25T09:32:39;12.38;;;2.03;;
16845;SDS011;8539;53.188;8.696;2024-03-25T09:35:07;9.15;;;2.22;;
16845;SDS011;8539;53.188;8.696;2024-03-25T09:37:33;11.85;;;2.63;;
16845;SDS011;8539;53.188;8.696;2024-03-25T09:40:00;14.10;;;2.90;;
16845;SDS011;8539;53.188;8.696;2024-03-25T09:42:27;8.73;;;2.58;;
16845;SDS011;8539;53.188;8.696;2024-03-25T09:44:54;8.65;;;1.90;;
16845;SDS011;8539;53.188;8.696;2024-03-25T09:47:21;14.40;;;2.45;;
16845;SDS011;8539;53.188;8.696;2024-03-25T09:49:48;5.75;;;1.77;;
16845;SDS011;8539;53.188;8.696;2024-03-25T09:52:14;14.75;;;2.35;;
16845;SDS011;8539;53.188;8.696;2024-03-25T09:54:41;7.40;;;2.22;;
16845;SDS011;8539;53.188;8.696;2024-03-25T09:57:10;10.13;;;2.72;;
16845;SDS011;8539;53.188;8.696;2024-03-25T09:59:37;6.38;;;1.85;;
16845;SDS011;8539;53.188;8.696;2024-03-25T10:02:06;5.32;;;1.50;;
16845;SDS011;8539;53.188;8.696;2024-03-25T10:04:37;10.18;;;2.00;;
16845;SDS011;8539;53.188;8.696;2024-03-25T10:07:09;10.13;;;2.83;;
16845;SDS011;8539;53.188;8.696;2024-03-25T10:09:36;9.43;;;2.00;;
16845;SDS011;8539;53.188;8.696;2024-03-25T10:12:02;7.95;;;1.80;;
16845;SDS011;8539;53.188;8.696;2024-03-25T10:14:29;7.15;;;2.17;;
16845;SDS011;8539;53.188;8.696;2024-03-25T10:16:55;7.90;;;1.70;;
16845;SDS011;8539;53.188;8.696;2024-03-25T10:19:21;11.98;;;2.38;;
16845;SDS011;8539;53.188;8.696;2024-03-25T10:21:47;15.82;;;2.15;;
16845;SDS011;8539;53.188;8.696;2024-03-25T10:24:16;9.65;;;2.47;;
16845;SDS011;8539;53.188;8.696;2024-03-25T10:26:42;10.35;;;2.35;;
16845;SDS011;8539;53.188;8.696;2024-03-25T10:29:08;7.78;;;2.00;;
16845;SDS011;8539;53.188;8.696;2024-03-25T10:31:36;14.73;;;2.38;;
16845;SDS011;8539;53.188;8.696;2024-03-25T10:34:02;7.18;;;2.17;;
16845;SDS011;8539;53.188;8.696;2024-03-25T10:36:28;5.82;;;1.70;;
16845;SDS011;8539;53.188;8.696;2024-03-25T10:38:56;10.13;;;2.38;;
16845;SDS011;8539;53.188;8.696;2024-03-25T10:41:28;9.95;;;1.98;;
16845;SDS011;8539;53.188;8.696;2024-03-25T10:43:55;13.07;;;2.38;;
16845;SDS011;8539;53.188;8.696;2024-03-25T10:46:24;10.80;;;2.00;;
16845;SDS011;8539;53.188;8.696;2024-03-25T10:48:54;7.15;;;1.70;;
16845;SDS011;8539;53.188;8.696;2024-03-25T10:51:28;14.25;;;2.10;;
16845;SDS011;8539;53.188;8.696;2024-03-25T10:53:56;10.45;;;1.92;;
16845;SDS011;8539;53.188;8.696;2024-03-25T10:56:24;5.82;;;1.58;;
16845;SDS011;8539;53.188;8.696;2024-03-25T10:58:50;8.90;;;2.03;;
16845;SDS011;8539;53.188;8.696;2024-03-25T11:01:18;4.53;;;1.73;;
16845;SDS011;8539;53.188;8.696;2024-03-25T11:03:45;9.60;;;1.92;;
16845;SDS011;8539;53.188;8.696;2024-03-25T11:06:13;10.48;;;1.67;;
16845;SDS011;8539;53.188;8.696;2024-03-25T11:08:40;9.00;;;1.65;;
16845;SDS011;8539;53.188;8.696;2024-03-25T11:11:07;7.50;;;2.10;;
16845;SDS011;8539;53.188;8.696;2024-03-25T11:13:33;8.65;;;1.63;;
16845;SDS011;8539;53.188;8.696;2024-03-25T11:16:00;8.05;;;2.38;;
16845;SDS011;8539;53.188;8.696;2024-03-25T11:18:26;5.72;;;1.63;;
16845;SDS011;8539;53.188;8.696;2024-03-25T11:21:05;6.07;;;1.70;;
16845;SDS011;8539;53.188;8.696;2024-03-25T11:23:43;5.43;;;2.10;;
16845;SDS011;8539;53.188;8.696;2024-03-25T11:26:25;8.60;;;2.42;;
16845;SDS011;8539;53.188;8.696;2024-03-25T11:28:56;3.33;;;1.77;;
16845;SDS011;8539;53.188;8.696;2024-03-25T11:31:22;8.30;;;2.17;;
16845;SDS011;8539;53.188;8.696;2024-03-25T11:33:51;12.43;;;2.47;;
16845;SDS011;8539;53.188;8.696;2024-03-25T11:36:18;4.68;;;1.85;;
16845;SDS011;8539;53.188;8.696;2024-03-25T11:38:46;4.43;;;2.08;;
16845;SDS011;8539;53.188;8.696;2024-03-25T11:41:22;10.70;;;1.92;;
16845;SDS011;8539;53.188;8.696;2024-03-25T11:43:48;8.38;;;2.08;;
16845;SDS011;8539;53.188;8.696;2024-03-25T11:46:17;7.55;;;2.00;;
16845;SDS011;8539;53.188;8.696;2024-03-25T11:48:44;2.28;;;1.38;;
16845;SDS011;8539;53.188;8.696;2024-03-25T11:51:16;7.80;;;2.20;;
16845;SDS011;8539;53.188;8.696;2024-03-25T11:53:43;8.63;;;2.45;;
16845;SDS011;8539;53.188;8.696;2024-03-25T11:56:10;4.15;;;1.80;;
16845;SDS011;8539;53.188;8.696;2024-03-25T11:58:39;6.85;;;1.70;;
16845;SDS011;8539;53.188;8.696;2024-03-25T12:01:06;8.80;;;1.95;;
16845;SDS011;8539;53.188;8.696;2024-03-25T12:03:34;6.47;;;2.38;;
16845;SDS011;8539;53.188;8.696;2024-03-25T12:06:00;2.63;;;1.48;;
16845;SDS011;8539;53.188;8.696;2024-03-25T12:08:26;7.13;;;2.25;;
16845;SDS011;8539;53.188;8.696;2024-03-25T12:10:55;4.65;;;1.00;;
16845;SDS011;8539;53.188;8.696;2024-03-25T12:13:39;6.85;;;2.20;;
16845;SDS011;8539;53.188;8.696;2024-03-25T12:16:06;9.68;;;2.25;;
16845;SDS011;8539;53.188;8.696;2024-03-25T12:18:36;7.45;;;1.73;;
16845;SDS011;8539;53.188;8.696;2024-03-25T12:21:07;7.25;;;1.95;;
16845;SDS011;8539;53.188;8.696;2024-03-25T12:23:34;12.38;;;1.55;;
16845;SDS011;8539;53.188;8.696;2024-03-25T12:26:00;9.80;;;1.30;;
16845;SDS011;8539;53.188;8.696;2024-03-25T12:28:27;9.98;;;2.42;;
16845;SDS011;8539;53.188;8.696;2024-03-25T12:30:54;5.05;;;1.40;;
16845;SDS011;8539;53.188;8.696;2024-03-25T12:33:22;7.82;;;1.40;;
16845;SDS011;8539;53.188;8.696;2024-03-25T12:35:49;3.25;;;1.20;;
16845;SDS011;8539;53.188;8.696;2024-03-25T12:41:05;7.07;;;1.75;;
16845;SDS011;8539;53.188;8.696;2024-03-25T12:43:36;5.28;;;1.83;;
16845;SDS011;8539;53.188;8.696;2024-03-25T12:46:07;8.18;;;1.52;;
16845;SDS011;8539;53.188;8.696;2024-03-25T12:48:34;4.57;;;1.25;;
16845;SDS011;8539;53.188;8.696;2024-03-25T12:51:01;2.55;;;1.50;;
16845;SDS011;8539;53.188;8.696;2024-03-25T12:53:27;9.23;;;1.83;;
16845;SDS011;8539;53.188;8.696;2024-03-25T12:55:54;8.63;;;1.60;;
16845;SDS011;8539;53.188;8.696;2024-03-25T12:58:20;7.85;;;1.60;;
16845;SDS011;8539;53.188;8.696;2024-03-25T13:00:46;4.25;;;1.80;;
16845;SDS011;8539;53.188;8.696;2024-03-25T13:03:12;9.18;;;1.95;;
16845;SDS011;8539;53.188;8.696;2024-03-25T13:05:39;6.60;;;1.25;;
16845;SDS011;8539;53.188;8.696;2024-03-25T13:08:06;9.60;;;1.40;;
16845;SDS011;8539;53.188;8.696;2024-03-25T13:10:32;2.95;;;1.33;;
16845;SDS011;8539;53.188;8.696;2024-03-25T13:13:01;6.10;;;1.35;;
16845;SDS011;8539;53.188;8.696;2024-03-25T13:15:28;7.82;;;1.85;;
16845;SDS011;8539;53.188;8.696;2024-03-25T13:17:54;7.10;;;1.10;;
16845;SDS011;8539;53.188;8.696;2024-03-25T13:20:20;4.88;;;1.50;;
16845;SDS011;8539;53.188;8.696;2024-03-25T13:22:46;5.93;;;1.75;;
16845;SDS011;8539;53.188;8.696;2024-03-25T13:25:14;6.45;;;1.40;;
16845;SDS011;8539;53.188;8.696;2024-03-25T13:27:40;6.25;;;1.50;;
16845;SDS011;8539;53.188;8.696;2024-03-25T13:30:06;5.32;;;1.73;;
16845;SDS011;8539;53.188;8.696;2024-03-25T13:32:33;4.68;;;1.65;;
16845;SDS011;8539;53.188;8.696;2024-03-25T13:34:59;8.23;;;1.90;;
16845;SDS011;8539;53.188;8.696;2024-03-25T13:37:26;9.05;;;2.00;;
16845;SDS011;8539;53.188;8.696;2024-03-25T13:39:53;7.72;;;1.63;;
16845;SDS011;8539;53.188;8.696;2024-03-25T13:42:19;6.55;;;1.75;;
16845;SDS011;8539;53.188;8.696;2024-03-25T13:44:45;8.45;;;1.48;;
16845;SDS011;8539;53.188;8.696;2024-03-25T13:47:11;6.05;;;1.60;;
16845;SDS011;8539;53.188;8.696;2024-03-25T13:49:37;5.55;;;1.40;;
16845;SDS011;8539;53.188;8.696;2024-03-25T13:52:03;7.93;;;2.83;;
16845;SDS011;8539;53.188;8.696;2024-03-25T13:54:30;7.07;;;2.08;;
16845;SDS011;8539;53.188;8.696;2024-03-25T13:56:56;3.85;;;1.25;;
16845;SDS011;8539;53.188;8.696;2024-03-25T13:59:23;3.15;;;1.60;;
16845;SDS011;8539;53.188;8.696;2024-03-25T14:01:49;11.90;;;2.47;;
16845;SDS011;8539;53.188;8.696;2024-03-25T14:04:17;7.20;;;2.22;;
16845;SDS011;8539;53.188;8.696;2024-03-25T14:06:43;9.90;;;2.63;;
16845;SDS011;8539;53.188;8.696;2024-03-25T14:09:26;8.18;;;3.20;;
16845;SDS011;8539;53.188;8.696;2024-03-25T14:11:53;9.70;;;2.10;;
16845;SDS011;8539;53.188;8.696;2024-03-25T14:14:19;10.32;;;2.03;;
16845;SDS011;8539;53.188;8.696;2024-03-25T14:16:45;8.98;;;1.80;;
16845;SDS011;8539;53.188;8.696;2024-03-25T14:19:11;4.60;;;1.63;;
16845;SDS011;8539;53.188;8.696;2024-03-25T14:21:38;3.60;;;1.50;;
16845;SDS011;8539;53.188;8.696;2024-03-25T14:24:07;4.55;;;1.45;;
16845;SDS011;8539;53.188;8.696;2024-03-25T14:26:33;9.40;;;1.52;;
16845;SDS011;8539;53.188;8.696;2024-03-25T14:28:59;5.40;;;1.52;;
16845;SDS011;8539;53.188;8.696;2024-03-25T14:31:26;3.65;;;1.40;;
16845;SDS011;8539;53.188;8.696;2024-03-25T14:33:53;3.47;;;1.63;;
16845;SDS011;8539;53.188;8.696;2024-03-25T14:38:54;4.82;;;2.13;;
16845;SDS011;8539;53.188;8.696;2024-03-25T14:41:21;6.38;;;2.17;;
16845;SDS011;8539;53.188;8.696;2024-03-25T14:43:47;5.55;;;2.00;;
16845;SDS011;8539;53.188;8.696;2024-03-25T14:46:16;9.45;;;2.20;;
16845;SDS011;8539;53.188;8.696;2024-03-25T14:48:42;7.18;;;1.90;;
16845;SDS011;8539;53.188;8.696;2024-03-25T14:51:09;8.02;;;1.83;;
16845;SDS011;8539;53.188;8.696;2024-03-25T14:53:35;6.18;;;1.92;;
16845;SDS011;8539;53.188;8.696;2024-03-25T14:56:01;5.40;;;2.05;;
16845;SDS011;8539;53.188;8.696;2024-03-25T14:58:29;8.98;;;3.63;;
16845;SDS011;8539;53.188;8.696;2024-03-25T15:00:56;10.68;;;2.47;;
16845;SDS011;8539;53.188;8.696;2024-03-25T15:03:23;10.30;;;2.25;;